Time;durP1;ratioP1;P1;durP2;ratioP2;P2;SDS_P1;SDS_P2;PMS_P1;PMS_P2;Temp;Humidity;BMP_temperature;BMP_pressure;BME280_temperature;BME280_humidity;BME280_pressure;Samples;Min_cycle;Max_cycle;Signal;HPM_P1;HPM_P2
2023/08/14 00:00:34;;;;;;;5.77;5.37;;;20.00;99.90;;;;;;5143349;27;20169;-78
2023/08/14 00:03:01;;;;;;;6.10;5.70;;;20.00;99.90;;;;;;5142360;27;20252;-80
2023/08/14 00:05:26;;;;;;;5.97;5.47;;;19.90;99.90;;;;;;5142401;27;20169;-79
2023/08/14 00:07:52;;;;;;;5.73;5.23;;;19.90;99.90;;;;;;5142933;27;20944;-76
2023/08/14 00:10:18;;;;;;;6.23;5.73;;;19.90;99.90;;;;;;5141791;27;20198;-79
2023/08/14 00:12:44;;;;;;;5.83;5.43;;;19.90;99.90;;;;;;5144356;27;20172;-79
2023/08/14 00:15:09;;;;;;;6.00;5.60;;;19.90;99.90;;;;;;5150296;27;20175;-77
2023/08/14 00:17:36;;;;;;;5.60;5.20;;;20.00;99.90;;;;;;5148141;27;20576;-78
2023/08/14 00:20:04;;;;;;;6.30;5.80;;;19.90;99.90;;;;;;5141653;27;20264;-77
2023/08/14 00:22:31;;;;;;;5.70;5.37;;;19.90;99.90;;;;;;5143059;27;20636;-78
2023/08/14 00:24:57;;;;;;;6.57;5.97;;;19.90;99.90;;;;;;5142339;27;20532;-77
2023/08/14 00:27:24;;;;;;;5.60;5.30;;;19.90;99.90;;;;;;5142941;27;20176;-77
2023/08/14 00:29:56;;;;;;;6.47;5.97;;;19.90;99.90;;;;;;5143563;27;20527;-78
2023/08/14 00:32:21;;;;;;;6.30;5.90;;;19.90;99.90;;;;;;5146767;27;20224;-78
2023/08/14 00:34:48;;;;;;;6.20;5.73;;;19.90;99.90;;;;;;5152523;27;20180;-82
2023/08/14 00:37:16;;;;;;;6.10;5.70;;;19.80;99.90;;;;;;5140526;27;20209;-80
2023/08/14 00:39:45;;;;;;;6.50;5.90;;;19.80;99.90;;;;;;5147465;27;20231;-76
2023/08/14 00:42:12;;;;;;;6.43;6.00;;;19.80;99.90;;;;;;5159109;27;20198;-78
2023/08/14 00:44:37;;;;;;;6.70;6.10;;;19.80;99.90;;;;;;5147782;27;20189;-79
2023/08/14 00:47:07;;;;;;;5.93;5.43;;;19.80;99.90;;;;;;5149126;27;20265;-78
2023/08/14 00:49:34;;;;;;;6.20;5.80;;;19.70;99.90;;;;;;5144124;27;20636;-77
2023/08/14 00:52:01;;;;;;;6.30;5.77;;;19.60;99.90;;;;;;5139659;27;20177;-77
2023/08/14 00:54:28;;;;;;;7.00;6.50;;;19.50;99.90;;;;;;5140644;27;20210;-76
2023/08/14 00:56:53;;;;;;;6.70;6.13;;;19.50;99.90;;;;;;5140924;27;20225;-78
2023/08/14 00:59:20;;;;;;;6.93;6.33;;;19.50;99.90;;;;;;5140877;27;20184;-77
2023/08/14 01:01:46;;;;;;;6.33;5.83;;;19.50;99.90;;;;;;5139214;27;20173;-78
2023/08/14 01:04:12;;;;;;;6.50;6.00;;;19.50;99.90;;;;;;5140252;27;20169;-79
2023/08/14 01:06:42;;;;;;;7.20;6.60;;;19.40;99.90;;;;;;5145541;27;20177;-77
2023/08/14 01:09:12;;;;;;;6.90;6.37;;;19.40;99.90;;;;;;5140342;27;20631;-81
2023/08/14 01:12:01;;;;;;;6.90;6.40;;;19.40;99.90;;;;;;5140664;27;20184;-78
2023/08/14 01:14:31;;;;;;;6.53;6.10;;;19.40;99.90;;;;;;5149981;27;20184;-76
2023/08/14 01:17:01;;;;;;;6.77;6.17;;;19.40;99.90;;;;;;5148439;27;20750;-78
2023/08/14 01:19:35;;;;;;;6.67;6.17;;;19.40;99.90;;;;;;5139342;27;20175;-79
2023/08/14 01:22:24;;;;;;;6.37;5.97;;;19.40;99.90;;;;;;5140332;27;20163;-82
2023/08/14 01:24:59;;;;;;;7.03;6.53;;;19.40;99.90;;;;;;5142499;27;20189;-77
2023/08/14 01:27:27;;;;;;;6.30;5.80;;;19.30;99.90;;;;;;5147089;27;20240;-77
2023/08/14 01:30:00;;;;;;;6.80;6.30;;;19.40;99.90;;;;;;5140630;27;20404;-79
2023/08/14 01:32:26;;;;;;;7.83;7.20;;;19.40;99.90;;;;;;5140708;27;20193;-80
2023/08/14 01:34:55;;;;;;;7.03;6.43;;;19.30;99.90;;;;;;5140745;27;20181;-77
2023/08/14 01:37:43;;;;;;;7.37;6.67;;;19.30;99.90;;;;;;5140609;27;20220;-77
2023/08/14 01:40:46;;;;;;;6.93;6.43;;;19.30;99.90;;;;;;5140479;27;20230;-77
2023/08/14 01:43:23;;;;;;;6.67;6.27;;;19.30;99.90;;;;;;5141835;27;20512;-78
2023/08/14 01:45:49;;;;;;;6.90;6.30;;;19.30;99.90;;;;;;5140286;27;20165;-78
2023/08/14 01:48:17;;;;;;;7.07;6.47;;;19.30;99.90;;;;;;5139810;27;20169;-77
2023/08/14 01:50:45;;;;;;;6.50;6.00;;;19.30;99.90;;;;;;5139615;27;20186;-77
2023/08/14 01:53:11;;;;;;;7.03;6.53;;;19.30;99.90;;;;;;5152894;27;20187;-76
2023/08/14 01:55:36;;;;;;;7.13;6.60;;;19.30;99.90;;;;;;5139178;27;20225;-76
2023/08/14 01:58:02;;;;;;;7.07;6.57;;;19.30;99.90;;;;;;5139141;27;20196;-76
2023/08/14 02:00:31;;;;;;;7.10;6.60;;;19.30;99.90;;;;;;5134364;27;20222;-77
2023/08/14 02:02:57;;;;;;;7.10;6.60;;;19.30;99.90;;;;;;5134840;27;20256;-77
2023/08/14 02:05:23;;;;;;;7.27;6.73;;;19.30;99.90;;;;;;5134547;27;20208;-77
2023/08/14 02:07:49;;;;;;;7.00;6.40;;;19.30;99.90;;;;;;5143570;27;20236;-79
2023/08/14 02:10:15;;;;;;;7.53;6.93;;;19.30;99.90;;;;;;5147451;27;20242;-79
2023/08/14 02:12:41;;;;;;;7.10;6.60;;;19.30;99.90;;;;;;5135154;27;20644;-76
2023/08/14 02:15:07;;;;;;;8.00;7.23;;;19.30;99.90;;;;;;5134735;27;20168;-78
2023/08/14 02:17:32;;;;;;;7.33;6.63;;;19.30;99.90;;;;;;5134589;27;20583;-78
2023/08/14 02:19:58;;;;;;;9.20;7.03;;;19.30;99.90;;;;;;5134667;27;20172;-76
2023/08/14 02:22:24;;;;;;;7.40;6.70;;;19.20;99.90;;;;;;5135193;27;20174;-77
2023/08/14 02:24:50;;;;;;;6.93;6.33;;;19.20;99.90;;;;;;5135151;28;20166;-77
2023/08/14 02:27:15;;;;;;;6.77;6.27;;;19.20;99.90;;;;;;5138366;28;20176;-79
2023/08/14 02:29:41;;;;;;;7.60;6.83;;;19.20;99.90;;;;;;5145173;28;20176;-75
2023/08/14 02:32:07;;;;;;;7.53;6.93;;;19.20;99.90;;;;;;5142899;27;20165;-77
2023/08/14 02:34:42;;;;;;;7.50;6.90;;;19.20;99.90;;;;;;5139330;28;20318;-76
2023/08/14 02:37:07;;;;;;;7.73;7.13;;;19.10;99.90;;;;;;5137913;27;20663;-76
2023/08/14 02:39:33;;;;;;;7.43;6.93;;;19.10;99.90;;;;;;5134013;28;20180;-75
2023/08/14 02:41:59;;;;;;;8.30;7.20;;;19.10;99.90;;;;;;5134825;27;20201;-78
2023/08/14 02:44:25;;;;;;;7.33;6.70;;;19.10;99.90;;;;;;5134779;28;20180;-78
2023/08/14 02:46:50;;;;;;;7.10;6.40;;;19.10;99.90;;;;;;5135453;27;20218;-80
2023/08/14 02:49:16;;;;;;;7.30;6.70;;;19.10;99.90;;;;;;5134758;27;20165;-78
2023/08/14 02:51:42;;;;;;;6.80;6.40;;;19.00;99.90;;;;;;5150944;28;20188;-79
2023/08/14 02:54:09;;;;;;;6.80;6.30;;;19.00;99.90;;;;;;5141006;28;20234;-77
2023/08/14 02:56:35;;;;;;;6.87;6.37;;;19.00;99.90;;;;;;5134856;27;20225;-78
2023/08/14 02:59:00;;;;;;;7.47;6.93;;;19.00;99.90;;;;;;5134826;28;20226;-79
2023/08/14 03:01:26;;;;;;;7.47;6.87;;;19.00;99.90;;;;;;5134737;27;20197;-80
2023/08/14 03:03:52;;;;;;;6.90;6.40;;;18.90;99.90;;;;;;5158251;27;20158;-78
2023/08/14 03:06:17;;;;;;;7.20;6.70;;;18.90;99.90;;;;;;5136693;28;20254;-78
2023/08/14 03:08:45;;;;;;;7.87;7.07;;;18.80;99.90;;;;;;5135016;27;20527;-77
2023/08/14 03:11:11;;;;;;;7.40;6.63;;;18.70;99.90;;;;;;5135307;27;20177;-79
2023/08/14 03:13:37;;;;;;;8.80;7.30;;;18.70;99.90;;;;;;5135305;27;20185;-78
2023/08/14 03:16:03;;;;;;;7.43;6.93;;;18.70;99.90;;;;;;5136160;27;20648;-78
2023/08/14 03:18:29;;;;;;;7.93;7.37;;;18.70;99.90;;;;;;5139461;27;20282;-77
2023/08/14 03:20:55;;;;;;;7.50;6.90;;;18.60;99.90;;;;;;5138414;27;20188;-77
2023/08/14 03:23:20;;;;;;;7.83;7.23;;;18.60;99.90;;;;;;5138034;27;20180;-78
2023/08/14 03:25:46;;;;;;;6.80;6.30;;;18.60;99.90;;;;;;5139122;27;20164;-78
2023/08/14 03:28:12;;;;;;;7.00;6.50;;;18.50;99.90;;;;;;5142731;27;20169;-79
2023/08/14 03:30:42;;;;;;;8.03;7.27;;;18.50;99.90;;;;;;5148196;27;20183;-77
2023/08/14 03:33:08;;;;;;;8.40;7.57;;;18.50;99.90;;;;;;5138613;27;20176;-78
2023/08/14 03:35:34;;;;;;;7.23;6.73;;;18.50;99.90;;;;;;5139421;27;20218;-76
2023/08/14 03:38:00;;;;;;;7.73;7.03;;;18.50;99.90;;;;;;5138813;27;20205;-76
2023/08/14 03:40:26;;;;;;;7.83;7.20;;;19.10;99.90;;;;;;5138481;27;20173;-77
2023/08/14 03:42:52;;;;;;;9.00;7.60;;;18.40;99.90;;;;;;5138907;27;20253;-76
2023/08/14 03:45:18;;;;;;;7.80;7.20;;;18.40;99.90;;;;;;5138887;27;20248;-76
2023/08/14 03:47:43;;;;;;;7.93;7.23;;;18.40;99.90;;;;;;5138360;27;20632;-79
2023/08/14 03:50:09;;;;;;;8.37;7.57;;;18.40;99.90;;;;;;5140651;27;20179;-77
2023/08/14 03:52:35;;;;;;;7.87;7.27;;;18.40;99.90;;;;;;5146422;27;20268;-79
2023/08/14 03:55:01;;;;;;;7.27;6.77;;;18.40;99.90;;;;;;5147643;27;20184;-78
2023/08/14 03:57:27;;;;;;;8.57;7.77;;;18.40;99.90;;;;;;5153415;27;20204;-77
2023/08/14 03:59:53;;;;;;;8.37;7.53;;;18.40;99.90;;;;;;5137982;27;20260;-75
2023/08/14 04:02:18;;;;;;;8.70;7.83;;;18.30;99.90;;;;;;5142505;27;20166;-77
2023/08/14 04:04:58;;;;;;;7.60;7.00;;;18.40;99.90;;;;;;5148151;27;20169;-77
2023/08/14 04:07:24;;;;;;;8.70;7.90;;;18.40;99.90;;;;;;5138141;27;20165;-77
2023/08/14 04:09:50;;;;;;;8.57;7.90;;;18.30;99.90;;;;;;5137662;27;20169;-78
2023/08/14 04:12:15;;;;;;;8.63;7.93;;;18.40;99.90;;;;;;5145286;27;20177;-79
2023/08/14 04:14:43;;;;;;;7.83;7.17;;;18.30;99.90;;;;;;5148893;27;20201;-77
2023/08/14 04:17:09;;;;;;;8.03;7.37;;;18.30;99.90;;;;;;5137814;27;20215;-76
2023/08/14 04:19:35;;;;;;;10.30;9.20;;;18.30;99.90;;;;;;5135624;27;20181;-76
2023/08/14 04:22:00;;;;;;;8.40;7.80;;;18.40;99.90;;;;;;5136767;27;20180;-75
2023/08/14 04:24:26;;;;;;;8.60;7.60;;;18.40;99.90;;;;;;5137207;27;20624;-76
2023/08/14 04:26:53;;;;;;;8.67;7.97;;;18.50;99.90;;;;;;5136162;27;20173;-77
2023/08/14 04:29:19;;;;;;;9.07;8.27;;;18.50;99.90;;;;;;5148492;27;20175;-78
2023/08/14 04:31:45;;;;;;;7.80;7.20;;;18.50;99.90;;;;;;5158934;27;20165;-79
2023/08/14 04:34:11;;;;;;;8.53;7.73;;;18.50;99.90;;;;;;5145178;27;20177;-77
2023/08/14 04:36:37;;;;;;;8.20;7.60;;;18.40;99.90;;;;;;5140584;27;20173;-78
2023/08/14 04:39:05;;;;;;;9.07;7.13;;;18.40;99.90;;;;;;5137489;27;20180;-78
2023/08/14 04:41:31;;;;;;;8.57;7.87;;;18.40;99.90;;;;;;5150611;27;20157;-79
2023/08/14 04:43:57;;;;;;;8.33;7.60;;;18.40;99.90;;;;;;5179094;27;20196;-81
2023/08/14 04:46:33;;;;;;;7.87;7.17;;;18.40;99.90;;;;;;5138247;27;20181;-80
2023/08/14 04:49:00;;;;;;;8.57;7.73;;;18.40;99.90;;;;;;5140725;27;20149;-77
2023/08/14 04:51:27;;;;;;;8.23;7.63;;;18.40;99.90;;;;;;5138769;27;20591;-76
2023/08/14 04:53:57;;;;;;;8.70;8.00;;;18.40;99.90;;;;;;5137250;27;20169;-77
2023/08/14 04:56:23;;;;;;;8.20;7.60;;;18.40;99.90;;;;;;5137576;27;20216;-78
2023/08/14 04:58:50;;;;;;;8.80;8.03;;;18.50;99.90;;;;;;5137168;27;20279;-78
2023/08/14 05:01:16;;;;;;;8.37;7.67;;;18.50;99.90;;;;;;5136978;27;20166;-78
2023/08/14 05:03:42;;;;;;;8.00;7.37;;;18.50;99.90;;;;;;5137005;27;20666;-76
2023/08/14 05:06:07;;;;;;;9.97;7.97;;;18.60;99.90;;;;;;5147424;27;20165;-78
2023/08/14 05:08:33;;;;;;;8.50;7.87;;;18.70;99.90;;;;;;5139824;27;20230;-78
2023/08/14 05:10:59;;;;;;;8.90;8.00;;;18.70;99.90;;;;;;5139477;27;20240;-81
2023/08/14 05:13:25;;;;;;;7.87;7.13;;;18.70;99.90;;;;;;5142705;27;20184;-78
2023/08/14 05:15:52;;;;;;;8.90;7.87;;;18.70;99.90;;;;;;5141328;27;20169;-78
2023/08/14 05:18:18;;;;;;;7.87;7.33;;;18.80;99.90;;;;;;5136586;27;20201;-78
2023/08/14 05:20:48;;;;;;;7.60;7.00;;;18.80;99.90;;;;;;5137117;27;20173;-77
2023/08/14 05:23:15;;;;;;;8.43;7.73;;;18.70;99.90;;;;;;5136557;27;20199;-78
2023/08/14 05:25:43;;;;;;;7.63;7.13;;;18.80;99.90;;;;;;5134952;27;20540;-78
2023/08/14 05:28:09;;;;;;;7.97;7.37;;;18.80;99.90;;;;;;5137408;27;20161;-77
2023/08/14 05:30:41;;;;;;;8.20;7.40;;;18.90;99.90;;;;;;5136880;27;20558;-77
2023/08/14 05:33:07;;;;;;;8.27;7.57;;;19.00;99.90;;;;;;5135666;27;20153;-79
2023/08/14 05:35:32;;;;;;;8.13;7.27;;;19.10;99.90;;;;;;5135198;27;20212;-78
2023/08/14 05:37:59;;;;;;;8.53;7.77;;;19.20;99.90;;;;;;5137307;27;20211;-76
2023/08/14 05:40:29;;;;;;;9.00;8.20;;;19.20;99.90;;;;;;5137642;27;20243;-80
2023/08/14 05:43:05;;;;;;;9.70;8.90;;;19.40;99.90;;;;;;5137670;27;20700;-76
2023/08/14 05:45:35;;;;;;;8.40;7.60;;;19.50;99.90;;;;;;5140479;27;20173;-78
2023/08/14 05:48:01;;;;;;;7.53;6.93;;;19.50;99.90;;;;;;5146900;27;20200;-79
2023/08/14 05:50:28;;;;;;;8.83;8.10;;;19.60;99.90;;;;;;5149635;27;20202;-77
2023/08/14 05:52:56;;;;;;;7.33;6.63;;;19.60;99.90;;;;;;5129946;27;20174;-77
2023/08/14 05:55:22;;;;;;;8.03;7.43;;;19.70;99.90;;;;;;5152895;27;20270;-77
2023/08/14 05:57:50;;;;;;;7.97;7.37;;;19.80;99.90;;;;;;5147011;27;20238;-76
2023/08/14 06:00:16;;;;;;;8.20;7.23;;;19.80;99.90;;;;;;5156154;27;20169;-76
2023/08/14 06:02:42;;;;;;;7.73;7.13;;;19.80;99.90;;;;;;5147525;27;20177;-79
2023/08/14 06:05:08;;;;;;;7.93;7.33;;;20.00;99.90;;;;;;5137517;27;20173;-77
2023/08/14 06:07:35;;;;;;;8.27;7.40;;;20.10;99.90;;;;;;5146022;27;20180;-78
2023/08/14 06:10:04;;;;;;;8.33;7.40;;;20.20;99.90;;;;;;5143776;27;20176;-77
2023/08/14 06:12:30;;;;;;;8.07;7.37;;;20.30;99.90;;;;;;5135755;27;20169;-80
2023/08/14 06:14:56;;;;;;;7.20;6.70;;;20.40;99.90;;;;;;5135534;27;20184;-80
2023/08/14 06:17:22;;;;;;;7.73;7.00;;;20.50;99.90;;;;;;5140679;28;20207;-78
2023/08/14 06:19:48;;;;;;;8.27;7.47;;;20.60;99.90;;;;;;5157261;27;20185;-81
2023/08/14 06:22:15;;;;;;;7.87;7.07;;;20.70;99.90;;;;;;5138118;27;20512;-81
2023/08/14 06:24:41;;;;;;;7.73;7.13;;;20.70;99.90;;;;;;5134567;28;20169;-83
2023/08/14 06:27:06;;;;;;;8.07;7.27;;;20.80;99.90;;;;;;5137029;27;20695;-79
2023/08/14 06:29:32;;;;;;;7.60;6.90;;;20.90;99.90;;;;;;5137168;27;20161;-78
2023/08/14 06:31:58;;;;;;;7.70;7.10;;;20.90;99.90;;;;;;5137970;27;20168;-80
2023/08/14 06:34:24;;;;;;;7.82;7.00;;;21.00;99.90;;;;;;5139140;27;20169;-79
2023/08/14 06:36:50;;;;;;;7.60;7.00;;;21.10;99.90;;;;;;5151757;27;20252;-81
2023/08/14 06:39:15;;;;;;;8.07;7.30;;;21.20;99.90;;;;;;5145470;27;20216;-83
2023/08/14 06:41:41;;;;;;;8.40;7.70;;;21.20;99.90;;;;;;5143133;27;20250;-78
2023/08/14 06:44:11;;;;;;;8.02;7.43;;;21.30;99.90;;;;;;5147831;27;20180;-79
2023/08/14 06:46:38;;;;;;;7.70;7.10;;;21.30;99.90;;;;;;5136266;27;20664;-79
2023/08/14 06:49:04;;;;;;;8.13;7.43;;;21.40;99.90;;;;;;5135397;27;20218;-80
2023/08/14 06:51:31;;;;;;;8.23;7.60;;;21.40;99.90;;;;;;5138523;27;20176;-82
2023/08/14 06:53:57;;;;;;;8.37;7.70;;;21.50;99.90;;;;;;5139777;27;20559;-79
2023/08/14 06:56:22;;;;;;;7.80;7.20;;;21.40;99.90;;;;;;5139903;27;20276;-81
2023/08/14 06:58:48;;;;;;;8.30;7.67;;;21.40;99.90;;;;;;5139759;27;20205;-83
2023/08/14 07:01:14;;;;;;;9.30;7.20;;;21.50;99.90;;;;;;5137706;27;20232;-82
2023/08/14 07:03:41;;;;;;;8.77;7.77;;;21.50;99.90;;;;;;5139390;27;20616;-80
2023/08/14 07:06:07;;;;;;;8.57;7.87;;;21.50;99.90;;;;;;5139262;27;20165;-82
2023/08/14 07:08:33;;;;;;;8.77;8.07;;;21.70;99.90;;;;;;5138541;27;20188;-84
2023/08/14 07:10:59;;;;;;;8.50;7.80;;;21.70;99.90;;;;;;5149448;27;20165;-81
2023/08/14 07:13:24;;;;;;;8.05;7.45;;;21.70;99.90;;;;;;5158897;27;20176;-79
2023/08/14 07:15:50;;;;;;;8.37;7.00;;;21.80;99.90;;;;;;5144674;27;20174;-80
2023/08/14 07:18:20;;;;;;;8.07;7.40;;;22.00;99.90;;;;;;5140750;27;20207;-82
2023/08/14 07:20:46;;;;;;;8.20;7.40;;;22.10;99.90;;;;;;5140739;27;20687;-84
2023/08/14 07:23:18;;;;;;;7.70;7.10;;;22.20;99.90;;;;;;5142389;27;20172;-81
2023/08/14 07:25:44;;;;;;;8.17;7.20;;;22.20;99.90;;;;;;5140651;27;20169;-80
2023/08/14 07:28:10;;;;;;;8.83;7.93;;;22.40;99.90;;;;;;5138693;27;20193;-80
2023/08/14 07:30:38;;;;;;;8.10;7.50;;;22.30;99.90;;;;;;5138713;27;20165;-80
2023/08/14 07:33:04;;;;;;;7.65;7.05;;;22.30;99.90;;;;;;5138634;27;20169;-78
2023/08/14 07:35:30;;;;;;;8.02;7.30;;;22.40;99.90;;;;;;5136922;27;20655;-77
2023/08/14 07:37:57;;;;;;;8.50;7.67;;;22.40;99.90;;;;;;5140795;27;20197;-80
2023/08/14 07:40:24;;;;;;;11.10;7.13;;;22.50;99.90;;;;;;5142636;27;20177;-79
2023/08/14 07:42:50;;;;;;;7.60;7.00;;;22.60;99.90;;;;;;5139364;27;20180;-81
2023/08/14 07:45:16;;;;;;;8.07;7.28;;;22.70;99.90;;;;;;5148699;27;20161;-82
2023/08/14 07:47:42;;;;;;;7.75;7.05;;;22.80;99.90;;;;;;5151428;27;20249;-81
2023/08/14 07:50:08;;;;;;;7.13;6.63;;;22.80;99.90;;;;;;5141346;27;20581;-79
2023/08/14 07:52:34;;;;;;;7.60;6.95;;;22.90;99.90;;;;;;5139113;27;20181;-83
2023/08/14 07:55:01;;;;;;;7.55;6.90;;;23.00;99.90;;;;;;5138522;27;20230;-80
2023/08/14 07:57:27;;;;;;;7.22;6.78;;;23.10;99.90;;;;;;5152097;27;20197;-79
2023/08/14 07:59:53;;;;;;;6.80;6.35;;;23.10;99.90;;;;;;5154839;27;20675;-81
2023/08/14 08:02:19;;;;;;;7.70;7.00;;;23.20;99.90;;;;;;5138276;27;20168;-81
2023/08/14 08:04:45;;;;;;;7.18;6.57;;;23.30;99.90;;;;;;5138636;27;20217;-81
2023/08/14 08:07:11;;;;;;;7.85;7.15;;;23.40;99.90;;;;;;5137869;27;20181;-80
2023/08/14 08:09:37;;;;;;;7.40;6.80;;;23.40;99.90;;;;;;5136673;27;20179;-81
2023/08/14 08:12:03;;;;;;;7.30;6.60;;;23.50;99.90;;;;;;5138018;27;20169;-81
2023/08/14 08:14:28;;;;;;;6.78;6.28;;;23.60;99.90;;;;;;5138241;27;20218;-78
2023/08/14 08:16:54;;;;;;;6.63;6.22;;;23.70;99.90;;;;;;5137808;27;20177;-80
2023/08/14 08:19:21;;;;;;;7.25;6.75;;;23.70;99.90;;;;;;5143591;27;20177;-78
2023/08/14 08:21:47;;;;;;;6.60;6.20;;;23.70;99.90;;;;;;5139486;27;20207;-81
2023/08/14 08:24:13;;;;;;;6.75;6.30;;;23.70;99.90;;;;;;5137894;27;20185;-80
2023/08/14 08:26:39;;;;;;;7.38;6.80;;;23.70;99.90;;;;;;5138721;27;20166;-77
2023/08/14 08:29:07;;;;;;;7.07;6.47;;;23.80;99.90;;;;;;5138447;27;20172;-77
2023/08/14 08:31:33;;;;;;;7.03;6.43;;;23.90;99.90;;;;;;5138296;27;20634;-78
2023/08/14 08:33:59;;;;;;;6.90;6.43;;;24.00;99.90;;;;;;5140984;27;20162;-79
2023/08/14 08:36:25;;;;;;;6.75;6.20;;;24.10;99.90;;;;;;5141877;27;20255;-79
2023/08/14 08:38:50;;;;;;;5.85;5.43;;;24.20;99.90;;;;;;5140787;27;20197;-80
2023/08/14 08:41:31;;;;;;;6.53;6.03;;;24.30;99.90;;;;;;5137526;27;20252;-79
2023/08/14 08:44:09;;;;;;;5.68;5.22;;;24.40;99.90;;;;;;5137682;27;20161;-79
2023/08/14 08:46:37;;;;;;;5.38;5.07;;;24.40;99.90;;;;;;5137609;27;20202;-79
2023/08/14 08:49:04;;;;;;;5.70;5.30;;;24.50;99.90;;;;;;5137443;27;20169;-77
2023/08/14 08:51:37;;;;;;;6.00;5.60;;;24.60;99.90;;;;;;5136966;27;20177;-80
2023/08/14 08:54:03;;;;;;;5.72;5.32;;;24.60;99.90;;;;;;5137626;27;20180;-79
2023/08/14 08:56:29;;;;;;;5.85;5.35;;;24.60;99.90;;;;;;5136734;27;20637;-79
2023/08/14 08:58:55;;;;;;;5.85;5.22;;;24.70;99.90;;;;;;5137075;27;20197;-79
2023/08/14 09:01:23;;;;;;;5.70;5.30;;;24.80;99.90;;;;;;5136935;27;20162;-77
2023/08/14 09:03:49;;;;;;;5.60;5.20;;;24.80;99.90;;;;;;5136902;27;20547;-79
2023/08/14 09:06:15;;;;;;;5.70;5.25;;;24.90;99.90;;;;;;5134474;27;20233;-78
2023/08/14 09:08:40;;;;;;;5.30;4.85;;;24.90;99.90;;;;;;5136172;27;20199;-78
2023/08/14 09:11:06;;;;;;;5.47;5.07;;;25.00;99.90;;;;;;5136084;27;20161;-78
2023/08/14 09:13:32;;;;;;;5.90;5.50;;;25.10;99.90;;;;;;5134237;27;20181;-77
2023/08/14 09:16:00;;;;;;;5.60;5.20;;;25.20;99.90;;;;;;5139728;27;20169;-77
2023/08/14 09:18:26;;;;;;;5.72;5.32;;;25.20;99.90;;;;;;5152085;27;20283;-77
2023/08/14 09:20:53;;;;;;;5.00;4.70;;;25.30;99.90;;;;;;5140440;27;20173;-76
2023/08/14 09:23:18;;;;;;;5.60;5.20;;;25.30;99.90;;;;;;5153393;27;20157;-78
2023/08/14 09:25:45;;;;;;;4.80;4.50;;;25.30;99.90;;;;;;5139480;27;20169;-77
2023/08/14 09:28:12;;;;;;;5.20;4.85;;;25.40;99.90;;;;;;5136547;27;20715;-78
2023/08/14 09:30:39;;;;;;;5.45;4.95;;;25.20;99.90;;;;;;5136068;27;20161;-79
2023/08/14 09:33:10;;;;;;;5.03;4.72;;;25.20;99.90;;;;;;5139030;27;20207;-79
2023/08/14 09:35:37;;;;;;;4.82;4.43;;;25.40;99.90;;;;;;5152370;27;20224;-78
2023/08/14 09:38:03;;;;;;;4.88;4.53;;;25.50;99.90;;;;;;5135930;27;20246;-76
2023/08/14 09:40:30;;;;;;;4.88;4.57;;;25.50;99.90;;;;;;5135849;27;20260;-78
2023/08/14 09:42:57;;;;;;;4.85;4.63;;;25.50;99.90;;;;;;5135751;27;20172;-80
2023/08/14 09:45:25;;;;;;;4.78;4.45;;;25.60;99.90;;;;;;5135652;27;20690;-78
2023/08/14 09:47:56;;;;;;;5.20;4.80;;;25.60;99.90;;;;;;5135998;27;20172;-79
2023/08/14 09:50:30;;;;;;;4.95;4.65;;;25.60;99.90;;;;;;5135527;27;20189;-76
2023/08/14 09:52:57;;;;;;;5.60;4.85;;;25.70;99.90;;;;;;5135441;27;20214;-79
2023/08/14 09:55:25;;;;;;;4.68;4.43;;;25.70;99.90;;;;;;5144165;27;20216;-78
2023/08/14 09:57:53;;;;;;;4.20;4.00;;;25.80;99.90;;;;;;5136194;27;20218;-79
2023/08/14 10:00:18;;;;;;;4.55;4.20;;;25.80;99.90;;;;;;5135034;27;20508;-78
2023/08/14 10:02:47;;;;;;;4.82;4.53;;;25.80;99.90;;;;;;5135209;27;20187;-78
2023/08/14 10:05:15;;;;;;;4.18;3.85;;;25.80;99.90;;;;;;5135240;27;20172;-77
2023/08/14 10:07:43;;;;;;;4.97;4.68;;;25.90;99.90;;;;;;5135016;27;20169;-80
2023/08/14 10:10:11;;;;;;;4.45;4.18;;;25.90;99.90;;;;;;5134230;27;20179;-79
2023/08/14 10:12:55;;;;;;;3.90;3.70;;;26.00;99.90;;;;;;5135277;27;20508;-79
2023/08/14 10:15:27;;;;;;;5.85;3.80;;;26.00;99.90;;;;;;5135116;27;20154;-79
2023/08/14 10:18:03;;;;;;;4.10;3.90;;;26.00;99.90;;;;;;5135365;27;20233;-79
2023/08/14 10:20:33;;;;;;;4.10;3.90;;;26.00;99.90;;;;;;5135301;27;20200;-79
2023/08/14 10:23:00;;;;;;;3.72;3.42;;;26.00;99.90;;;;;;5133966;28;20177;-78
2023/08/14 10:25:27;;;;;;;4.45;4.25;;;26.00;99.90;;;;;;5136489;27;20214;-80
2023/08/14 10:27:54;;;;;;;4.05;3.75;;;26.00;99.90;;;;;;5139592;27;20193;-78
2023/08/14 10:30:24;;;;;;;4.30;4.00;;;26.00;99.90;;;;;;5140104;27;20187;-79
2023/08/14 10:32:51;;;;;;;4.03;3.83;;;26.00;99.90;;;;;;5143443;27;20157;-78
2023/08/14 10:35:18;;;;;;;4.10;3.90;;;25.90;99.90;;;;;;5143282;27;20161;-78
2023/08/14 10:37:49;;;;;;;4.63;4.32;;;26.00;99.90;;;;;;5139593;27;20232;-78
2023/08/14 10:40:16;;;;;;;4.32;4.03;;;26.10;99.90;;;;;;5139129;27;20565;-77
2023/08/14 10:42:45;;;;;;;4.28;4.03;;;26.20;99.90;;;;;;5147214;27;20197;-79
2023/08/14 10:45:11;;;;;;;4.28;4.00;;;26.20;99.90;;;;;;5148556;27;20180;-80
2023/08/14 10:47:41;;;;;;;3.97;3.78;;;26.20;99.90;;;;;;5139866;27;20168;-77
2023/08/14 10:50:13;;;;;;;3.78;3.55;;;26.20;99.90;;;;;;5139172;27;20165;-78
2023/08/14 10:52:41;;;;;;;4.05;3.85;;;26.20;99.90;;;;;;5138849;27;20636;-78
2023/08/14 10:55:23;;;;;;;3.88;3.65;;;26.20;99.90;;;;;;5138629;27;20173;-76
2023/08/14 10:57:49;;;;;;;3.83;3.63;;;26.20;99.90;;;;;;5138651;27;20197;-80
2023/08/14 11:00:25;;;;;;;4.03;3.70;;;26.30;99.90;;;;;;5155665;27;20224;-77
2023/08/14 11:03:07;;;;;;;4.20;4.00;;;26.20;99.90;;;;;;5140603;27;20165;-76
2023/08/14 11:05:40;;;;;;;3.85;3.65;;;26.30;99.90;;;;;;5138727;27;20639;-78
2023/08/14 11:08:07;;;;;;;3.78;3.47;;;26.30;99.90;;;;;;5140024;27;20169;-77
2023/08/14 11:10:34;;;;;;;4.10;3.90;;;26.40;99.90;;;;;;5144678;27;20252;-76
2023/08/14 11:13:01;;;;;;;4.20;3.90;;;26.50;99.90;;;;;;5153376;27;20204;-77
2023/08/14 11:15:31;;;;;;;5.63;5.18;;;26.50;99.90;;;;;;5139302;27;20165;-79
2023/08/14 11:17:57;;;;;;;4.00;3.72;;;26.60;99.90;;;;;;5138505;27;20197;-79
2023/08/14 11:20:27;;;;;;;3.70;3.50;;;26.50;99.90;;;;;;5138407;27;20395;-78
2023/08/14 11:22:53;;;;;;;3.60;3.40;;;26.60;99.90;;;;;;5138635;27;20260;-77
2023/08/14 11:25:20;;;;;;;3.58;3.40;;;26.50;99.90;;;;;;5138534;27;20165;-77
2023/08/14 11:27:54;;;;;;;3.55;3.25;;;26.50;99.90;;;;;;5138748;27;20498;-78
2023/08/14 11:30:22;;;;;;;3.35;3.15;;;26.60;99.90;;;;;;5138162;27;20184;-77
2023/08/14 11:32:48;;;;;;;4.03;3.72;;;26.70;99.90;;;;;;5142800;27;20169;-79
2023/08/14 11:35:14;;;;;;;3.58;3.28;;;26.70;99.90;;;;;;5140694;27;20183;-80
2023/08/14 11:37:40;;;;;;;4.15;3.85;;;26.80;99.90;;;;;;5137227;27;20203;-78
2023/08/14 11:40:11;;;;;;;3.42;3.22;;;26.80;99.90;;;;;;5137138;27;20169;-78
2023/08/14 11:42:39;;;;;;;3.95;3.65;;;26.70;99.30;;;;;;5138023;27;20181;-79
2023/08/14 11:45:05;;;;;;;4.00;3.80;;;26.70;99.90;;;;;;5136543;27;20177;-78
2023/08/14 11:47:34;;;;;;;3.40;3.20;;;26.70;99.90;;;;;;5138708;27;20554;-77
2023/08/14 11:50:00;;;;;;;3.65;3.33;;;26.70;99.90;;;;;;5138256;27;20620;-80
2023/08/14 11:52:26;;;;;;;3.60;3.40;;;26.80;99.90;;;;;;5136440;27;20210;-79
2023/08/14 11:54:54;;;;;;;3.58;3.38;;;26.80;99.90;;;;;;5138170;27;20161;-78
2023/08/14 11:57:23;;;;;;;3.40;3.20;;;26.90;99.90;;;;;;5144885;27;20274;-76
2023/08/14 11:59:49;;;;;;;3.40;3.20;;;27.00;99.90;;;;;;5145029;27;20549;-76
2023/08/14 12:02:17;;;;;;;3.70;3.50;;;27.00;99.90;;;;;;5139361;27;20174;-77
2023/08/14 12:04:43;;;;;;;3.75;3.42;;;27.00;99.90;;;;;;5142603;27;20565;-77
2023/08/14 12:07:09;;;;;;;3.70;3.50;;;27.00;99.90;;;;;;5145444;27;20198;-77
2023/08/14 12:09:37;;;;;;;3.60;3.47;;;27.00;99.90;;;;;;5137160;27;20193;-78
2023/08/14 12:12:04;;;;;;;3.88;3.67;;;26.90;99.90;;;;;;5137720;27;20172;-77
2023/08/14 12:14:46;;;;;;;3.40;3.20;;;26.90;99.90;;;;;;5136782;27;20165;-76
2023/08/14 12:17:13;;;;;;;3.67;3.47;;;27.00;99.90;;;;;;5137586;27;20185;-78
2023/08/14 12:19:40;;;;;;;3.80;3.60;;;27.00;99.90;;;;;;5137022;27;20528;-80
2023/08/14 12:22:07;;;;;;;4.00;3.70;;;27.00;99.90;;;;;;5137691;27;20626;-77
2023/08/14 12:24:39;;;;;;;3.60;3.33;;;27.10;99.90;;;;;;5137945;27;20177;-78
2023/08/14 12:27:23;;;;;;;3.30;3.10;;;27.10;99.90;;;;;;5138200;27;20165;-77
2023/08/14 12:29:50;;;;;;;3.78;3.58;;;27.10;99.90;;;;;;5138671;27;20189;-76
2023/08/14 12:32:17;;;;;;;3.60;3.33;;;27.00;99.90;;;;;;5140408;27;20191;-80
2023/08/14 12:34:43;;;;;;;3.78;3.40;;;27.20;99.90;;;;;;5139782;27;20226;-78
2023/08/14 12:37:14;;;;;;;3.53;3.33;;;27.10;99.60;;;;;;5153558;27;20187;-78
2023/08/14 12:39:40;;;;;;;4.00;3.70;;;27.20;99.90;;;;;;5140491;27;20186;-78
2023/08/14 12:42:06;;;;;;;3.65;3.53;;;27.30;99.90;;;;;;5137488;27;20230;-75
2023/08/14 12:44:32;;;;;;;4.03;3.72;;;27.40;99.90;;;;;;5137560;27;20161;-79
2023/08/14 12:46:58;;;;;;;3.85;3.55;;;27.40;99.90;;;;;;5137797;27;20264;-76
2023/08/14 12:49:24;;;;;;;3.50;3.30;;;27.40;99.90;;;;;;5153642;27;20173;-79